createdAt,value
2019-04-28T00:01:16.577Z,60.70
2019-04-28T00:03:45.066Z,60.70
2019-04-28T00:06:13.563Z,60.70
2019-04-28T00:08:42.904Z,60.70
2019-04-28T00:11:11.793Z,60.70
2019-04-28T00:13:41.771Z,60.70
2019-04-28T00:16:11.550Z,60.80
2019-04-28T00:18:41.535Z,60.80
2019-04-28T00:21:31.826Z,61.00
2019-04-28T00:24:14.086Z,61.10
2019-04-28T00:26:44.231Z,61.20
2019-04-28T00:29:12.728Z,61.40
2019-04-28T00:31:41.476Z,61.50
2019-04-28T00:34:11.452Z,61.70
2019-04-28T00:36:41.239Z,62.40
2019-04-28T00:39:11.135Z,61.60
2019-04-28T00:41:41.952Z,61.60
2019-04-28T00:44:11.994Z,61.60
2019-04-28T00:46:41.306Z,61.50
2019-04-28T00:49:11.645Z,61.40
2019-04-28T00:51:41.511Z,61.40
2019-04-28T00:54:12.039Z,61.40
2019-04-28T00:56:41.857Z,61.50
2019-04-28T00:59:11.767Z,61.50
2019-04-28T01:01:42.592Z,61.60
2019-04-28T01:04:11.894Z,61.60
2019-04-28T01:06:40.527Z,61.70
2019-04-28T01:09:09.270Z,61.70
2019-04-28T01:11:38.156Z,61.80
2019-04-28T01:14:06.566Z,61.70
2019-04-28T01:16:36.625Z,61.90
2019-04-28T01:19:22.974Z,62.10
2019-04-28T01:22:10.253Z,62.00
2019-04-28T01:24:40.372Z,62.10
2019-04-28T01:27:10.487Z,62.30
2019-04-28T01:29:40.299Z,62.40
2019-04-28T01:32:10.638Z,62.40
2019-04-28T01:34:40.004Z,62.50
2019-04-28T01:37:09.726Z,62.60
2019-04-28T01:39:41.006Z,62.80
2019-04-28T01:42:10.512Z,62.90
2019-04-28T01:44:41.854Z,63.10
2019-04-28T01:47:10.664Z,63.10
2019-04-28T01:49:40.606Z,63.10
2019-04-28T01:52:10.400Z,63.20
2019-04-28T01:54:40.313Z,63.20
2019-04-28T01:57:10.152Z,63.30
2019-04-28T01:59:40.336Z,63.30
2019-04-28T02:02:10.142Z,63.20
2019-04-28T02:04:40.227Z,64.10
2019-04-28T02:07:10.847Z,63.50
2019-04-28T02:09:39.645Z,63.60
2019-04-28T02:12:08.235Z,63.60
2019-04-28T02:14:36.639Z,63.80
2019-04-28T02:17:05.410Z,63.90
2019-04-28T02:19:33.827Z,63.70
2019-04-28T02:22:03.878Z,63.90
2019-04-28T02:24:33.959Z,63.90
2019-04-28T02:27:02.515Z,64.00
2019-04-28T02:29:31.188Z,64.10
2019-04-28T02:32:02.152Z,64.10
2019-04-28T02:34:31.185Z,64.20
2019-04-28T02:37:01.569Z,64.30
2019-04-28T02:39:31.169Z,64.60
2019-04-28T02:42:01.427Z,64.50
2019-04-28T02:44:33.418Z,64.60
2019-04-28T02:47:01.024Z,64.70
2019-04-28T02:49:40.751Z,64.80
2019-04-28T02:52:30.996Z,65.60
2019-04-28T02:55:03.010Z,65.00
2019-04-28T02:57:30.578Z,64.90
2019-04-28T03:00:00.517Z,65.00
2019-04-28T03:02:31.626Z,66.00
2019-04-28T03:05:00.292Z,65.30
2019-04-28T03:07:31.281Z,65.30
2019-04-28T03:10:01.126Z,65.50
2019-04-28T03:12:32.764Z,65.50
2019-04-28T03:15:01.207Z,65.80
2019-04-28T03:17:30.950Z,65.80
2019-04-28T03:20:01.077Z,65.70
2019-04-28T03:22:31.276Z,65.80
2019-04-28T03:25:01.831Z,66.00
2019-04-28T03:27:35.100Z,65.90
2019-04-28T03:30:06.402Z,66.00
2019-04-28T03:32:45.635Z,66.00
2019-04-28T03:35:06.952Z,66.10
2019-04-28T03:37:35.434Z,66.20
2019-04-28T03:40:06.077Z,66.10
2019-04-28T03:42:34.554Z,66.20
2019-04-28T03:45:04.802Z,66.20
2019-04-28T03:47:33.209Z,66.40
2019-04-28T03:50:01.904Z,66.40
2019-04-28T03:52:31.836Z,66.30
2019-04-28T03:55:00.688Z,67.20
2019-04-28T03:57:31.470Z,66.40
2019-04-28T04:00:01.573Z,66.30
2019-04-28T04:02:31.139Z,66.30
2019-04-28T04:05:03.288Z,66.40
2019-04-28T04:07:31.147Z,66.40
2019-04-28T04:10:01.545Z,66.50
2019-04-28T04:12:31.777Z,66.60
2019-04-28T04:15:16.950Z,66.30
2019-04-28T04:18:02.143Z,66.40
2019-04-28T04:20:31.188Z,66.40
2019-04-28T04:23:01.457Z,66.50
2019-04-28T04:25:31.369Z,66.50
2019-04-28T04:28:03.480Z,66.60
2019-04-28T04:30:31.107Z,66.60
2019-04-28T04:33:01.345Z,66.70
2019-04-28T04:35:31.606Z,66.60
2019-04-28T04:38:00.617Z,66.80
2019-04-28T04:40:31.839Z,66.60
2019-04-28T04:43:01.579Z,67.50
2019-04-28T04:45:30.485Z,66.60
2019-04-28T04:48:00.557Z,66.70
2019-04-28T04:50:31.364Z,66.70
2019-04-28T04:53:02.347Z,66.50
2019-04-28T04:55:30.861Z,66.70
2019-04-28T04:58:00.769Z,66.50
2019-04-28T05:00:31.081Z,66.50
2019-04-28T05:03:03.837Z,66.60
2019-04-28T05:05:40.428Z,66.60
2019-04-28T05:08:10.513Z,66.60
2019-04-28T05:10:40.356Z,66.70
2019-04-28T05:13:10.210Z,66.50
2019-04-28T05:15:40.027Z,66.50
2019-04-28T05:18:10.169Z,66.50
2019-04-28T05:20:40.361Z,66.50
2019-04-28T05:23:16.505Z,66.50
2019-04-28T05:25:44.987Z,66.60
2019-04-28T05:28:13.411Z,66.70
2019-04-28T05:30:42.925Z,66.50
2019-04-28T05:33:13.239Z,66.60
2019-04-28T05:35:41.712Z,66.80
2019-04-28T05:38:10.298Z,66.50
2019-04-28T05:40:39.914Z,66.50
2019-04-28T05:43:08.467Z,66.50
2019-04-28T05:45:36.920Z,66.60
2019-04-28T05:48:05.480Z,66.60
2019-04-28T05:50:47.710Z,66.70
2019-04-28T05:53:21.728Z,66.60
2019-04-28T05:55:54.677Z,66.50
2019-04-28T05:58:27.618Z,66.40
2019-04-28T06:01:12.990Z,66.30
2019-04-28T06:03:41.695Z,66.30
2019-04-28T06:06:10.306Z,66.30
2019-04-28T06:08:40.804Z,66.30
2019-04-28T06:11:27.273Z,66.30
2019-04-28T06:13:55.695Z,65.20
2019-04-28T06:16:24.198Z,64.90
2019-04-28T06:18:52.634Z,65.00
2019-04-28T06:21:21.056Z,64.80
2019-04-28T06:23:49.483Z,64.40
2019-04-28T06:26:17.949Z,64.20
2019-04-28T06:28:46.371Z,64.20
2019-04-28T06:31:14.789Z,63.90
2019-04-28T06:33:44.580Z,63.80
2019-04-28T06:36:13.121Z,63.90
2019-04-28T06:38:41.527Z,63.80
2019-04-28T06:41:09.965Z,63.70
2019-04-28T06:43:38.426Z,63.70
2019-04-28T06:46:06.850Z,63.80
2019-04-28T06:48:35.294Z,63.70
2019-04-28T06:51:03.710Z,63.70
2019-04-28T06:53:32.158Z,63.20
2019-04-28T06:56:00.578Z,63.10
2019-04-28T06:58:29.286Z,62.90
2019-04-28T07:00:57.991Z,63.00
2019-04-28T07:03:26.435Z,62.80
2019-04-28T07:05:54.908Z,63.00
2019-04-28T07:08:23.371Z,63.60
2019-04-28T07:10:51.815Z,63.00
2019-04-28T07:13:20.709Z,62.90
2019-04-28T07:15:49.339Z,62.70
2019-04-28T07:18:17.785Z,62.90
2019-04-28T07:20:47.834Z,62.90
2019-04-28T07:23:16.247Z,62.90
2019-04-28T07:25:44.819Z,63.00
2019-04-28T07:28:13.403Z,63.10
2019-04-28T07:30:42.152Z,63.90
2019-04-28T07:33:10.854Z,62.90
2019-04-28T07:35:39.280Z,62.90
2019-04-28T07:38:07.690Z,62.80
2019-04-28T07:40:36.442Z,63.20
2019-04-28T07:43:05.386Z,62.70
2019-04-28T07:45:33.818Z,62.70
2019-04-28T07:48:02.626Z,62.60
2019-04-28T07:50:31.045Z,62.50
2019-04-28T07:53:01.113Z,62.30
2019-04-28T07:55:29.561Z,62.10
2019-04-28T07:57:58.063Z,63.00
2019-04-28T08:00:31.107Z,61.90
2019-04-28T08:02:59.821Z,61.90
2019-04-28T08:05:28.238Z,61.90
2019-04-28T08:07:58.327Z,62.00
2019-04-28T08:10:26.850Z,62.00
2019-04-28T08:12:55.267Z,61.70
2019-04-28T08:15:23.755Z,61.60
2019-04-28T08:17:52.190Z,61.60
2019-04-28T08:20:20.620Z,61.50
2019-04-28T08:22:49.045Z,61.70
2019-04-28T08:25:17.481Z,61.70
2019-04-28T08:27:45.910Z,61.70
2019-04-28T08:30:14.477Z,61.80
2019-04-28T08:32:44.560Z,61.70
2019-04-28T08:35:13.273Z,61.40
2019-04-28T08:37:41.737Z,61.20
2019-04-28T08:40:10.420Z,61.00
2019-04-28T08:42:38.828Z,61.00
2019-04-28T08:45:07.887Z,61.00
2019-04-28T08:47:36.384Z,61.00
2019-04-28T08:50:05.606Z,60.90
2019-04-28T08:52:34.031Z,60.80
2019-04-28T08:55:02.810Z,60.80
2019-04-28T08:57:31.218Z,60.80
2019-04-28T08:59:59.638Z,60.50
2019-04-28T09:02:28.703Z,60.40
2019-04-28T09:04:57.320Z,60.20
2019-04-28T09:07:25.845Z,60.00
2019-04-28T09:09:54.280Z,60.00
2019-04-28T09:12:22.696Z,60.10
2019-04-28T09:14:51.170Z,60.10
2019-04-28T09:17:19.607Z,60.00
2019-04-28T09:19:48.026Z,60.10
2019-04-28T09:22:16.438Z,60.20
2019-04-28T09:24:44.874Z,60.20
2019-04-28T09:27:14.260Z,60.10
2019-04-28T09:29:42.912Z,60.00
2019-04-28T09:32:11.489Z,60.00
2019-04-28T09:34:41.252Z,60.00
2019-04-28T09:37:09.672Z,59.90
2019-04-28T09:39:48.777Z,60.00
2019-04-28T09:42:30.902Z,60.10
2019-04-28T09:45:14.283Z,60.10
2019-04-28T09:47:42.706Z,60.00
2019-04-28T09:50:11.127Z,60.00
2019-04-28T09:52:39.556Z,60.00
2019-04-28T09:55:08.042Z,60.20
2019-04-28T09:57:36.463Z,60.20
2019-04-28T10:00:09.591Z,60.20
2019-04-28T10:02:38.013Z,60.20
2019-04-28T10:05:09.534Z,60.50
2019-04-28T10:07:38.260Z,60.50
2019-04-28T10:10:11.722Z,60.50
2019-04-28T10:12:40.139Z,60.20
2019-04-28T10:15:09.523Z,59.80
2019-04-28T10:17:38.426Z,59.60
2019-04-28T10:20:07.599Z,59.30
2019-04-28T10:22:36.035Z,59.30
2019-04-28T10:25:08.648Z,59.20
2019-04-28T10:27:37.080Z,59.40
2019-04-28T10:30:10.260Z,59.30
2019-04-28T10:32:38.671Z,59.80
2019-04-28T10:35:08.236Z,58.90
2019-04-28T10:37:36.675Z,59.00
2019-04-28T10:40:20.481Z,58.80
2019-04-28T10:42:48.922Z,58.90
2019-04-28T10:45:18.981Z,58.80
2019-04-28T10:47:47.742Z,58.90
2019-04-28T10:50:17.292Z,58.70
2019-04-28T10:52:48.352Z,58.60
2019-04-28T10:55:16.770Z,58.60
2019-04-28T10:57:45.214Z,58.50
2019-04-28T11:00:15.648Z,58.40
2019-04-28T11:02:44.065Z,58.50
2019-04-28T11:05:20.291Z,58.30
2019-04-28T11:07:48.705Z,58.40
2019-04-28T11:10:19.169Z,58.10
2019-04-28T11:12:47.680Z,57.80
2019-04-28T11:15:19.355Z,57.70
2019-04-28T11:17:47.766Z,57.70
2019-04-28T11:20:16.315Z,57.90
2019-04-28T11:22:44.754Z,58.10
2019-04-28T11:25:13.487Z,58.50
2019-04-28T11:27:41.932Z,58.20
2019-04-28T11:30:10.924Z,58.30
2019-04-28T11:32:40.959Z,58.00
2019-04-28T11:35:23.485Z,58.00
2019-04-28T11:37:51.977Z,57.70
2019-04-28T11:40:20.398Z,57.50
2019-04-28T11:42:49.149Z,57.40
2019-04-28T11:45:17.650Z,57.30
2019-04-28T11:47:46.070Z,57.70
2019-04-28T11:50:14.665Z,57.30
2019-04-28T11:52:43.152Z,57.40
2019-04-28T11:55:11.916Z,57.60
2019-04-28T11:57:40.366Z,57.10
2019-04-28T12:00:17.210Z,56.40
2019-04-28T12:02:45.631Z,56.90
2019-04-28T12:05:14.204Z,56.70
2019-04-28T12:07:42.641Z,56.50
2019-04-28T12:10:12.772Z,56.50
2019-04-28T12:12:43.066Z,56.40
2019-04-28T12:15:13.935Z,56.70
2019-04-28T12:18:00.534Z,56.90
2019-04-28T12:20:28.960Z,56.10
2019-04-28T12:22:57.375Z,56.00
2019-04-28T12:25:25.839Z,56.20
2019-04-28T12:27:54.259Z,56.30
2019-04-28T12:30:22.679Z,55.50
2019-04-28T12:32:51.113Z,55.20
2019-04-28T12:35:19.558Z,55.60
2019-04-28T12:37:48.050Z,55.90
2019-04-28T12:40:16.740Z,56.20
2019-04-28T12:42:45.152Z,55.90
2019-04-28T12:45:14.339Z,55.50
2019-04-28T12:47:42.772Z,55.60
2019-04-28T12:50:22.839Z,55.00
2019-04-28T12:52:51.277Z,55.00
2019-04-28T12:55:19.767Z,55.10
2019-04-28T12:57:48.199Z,55.00
2019-04-28T13:00:24.447Z,55.00
2019-04-28T13:03:09.283Z,55.10
2019-04-28T13:05:39.813Z,54.70
2019-04-28T13:08:08.225Z,54.90
2019-04-28T13:10:36.721Z,54.50
2019-04-28T13:13:05.346Z,54.80
2019-04-28T13:15:34.242Z,54.80
2019-04-28T13:18:02.693Z,55.00
2019-04-28T13:20:31.177Z,55.30
2019-04-28T13:22:59.599Z,55.20
2019-04-28T13:25:28.015Z,54.80
2019-04-28T13:27:56.454Z,54.30
2019-04-28T13:30:24.872Z,54.00
2019-04-28T13:32:53.318Z,53.90
2019-04-28T13:35:21.766Z,53.80
2019-04-28T13:37:50.215Z,54.00
2019-04-28T13:40:25.863Z,53.20
2019-04-28T13:42:54.360Z,53.60
2019-04-28T13:45:27.283Z,53.90
2019-04-28T13:47:55.703Z,54.50
2019-04-28T13:50:25.925Z,53.70
2019-04-28T13:52:54.372Z,53.00
2019-04-28T13:55:27.746Z,52.60
2019-04-28T13:57:58.042Z,52.70
2019-04-28T14:00:28.173Z,52.70
2019-04-28T14:03:14.669Z,52.80
2019-04-28T14:05:44.815Z,53.50
2019-04-28T14:08:13.301Z,52.20
2019-04-28T14:10:41.738Z,52.30
2019-04-28T14:13:10.175Z,51.70
2019-04-28T14:15:38.627Z,51.50
2019-04-28T14:18:07.068Z,51.10
2019-04-28T14:20:35.494Z,51.80
2019-04-28T14:23:04.000Z,52.20
2019-04-28T14:25:32.526Z,52.80
2019-04-28T14:28:00.934Z,52.20
2019-04-28T14:30:29.375Z,51.90
2019-04-28T14:32:58.128Z,51.80
2019-04-28T14:35:26.639Z,51.30
2019-04-28T14:37:55.086Z,52.10
2019-04-28T14:40:23.661Z,51.80
2019-04-28T14:42:52.133Z,51.10
2019-04-28T14:45:22.137Z,49.90
2019-04-28T14:47:50.851Z,49.40
2019-04-28T14:50:19.270Z,51.00
2019-04-28T14:52:47.729Z,50.10
2019-04-28T14:55:16.326Z,49.40
2019-04-28T14:57:44.763Z,49.10
2019-04-28T15:00:17.947Z,50.00
2019-04-28T15:02:57.262Z,50.40
2019-04-28T15:05:43.497Z,50.30
2019-04-28T15:08:19.753Z,50.00
2019-04-28T15:10:49.910Z,50.10
2019-04-28T15:13:19.462Z,49.50
2019-04-28T15:15:50.409Z,49.40
2019-04-28T15:18:18.861Z,49.50
2019-04-28T15:20:47.286Z,49.50
2019-04-28T15:23:17.302Z,49.40
2019-04-28T15:25:45.777Z,49.50
2019-04-28T15:28:14.264Z,49.50
2019-04-28T15:30:42.746Z,49.30
2019-04-28T15:33:11.448Z,49.30
2019-04-28T15:35:39.888Z,49.50
2019-04-28T15:38:08.379Z,49.90
2019-04-28T15:40:36.814Z,49.90
2019-04-28T15:43:06.774Z,50.00
2019-04-28T15:45:35.299Z,49.90
2019-04-28T15:48:03.717Z,49.90
2019-04-28T15:50:32.182Z,49.90
2019-04-28T15:53:00.642Z,49.90
2019-04-28T15:55:33.472Z,50.00
2019-04-28T15:58:03.538Z,50.30
2019-04-28T16:00:31.991Z,50.40
2019-04-28T16:03:00.610Z,50.40
2019-04-28T16:05:29.079Z,50.50
2019-04-28T16:07:57.570Z,50.00
2019-04-28T16:10:25.997Z,50.10
2019-04-28T16:12:54.532Z,49.80
2019-04-28T16:15:23.344Z,49.70
2019-04-28T16:17:51.764Z,49.60
2019-04-28T16:20:20.232Z,49.20
2019-04-28T16:22:48.719Z,49.30
2019-04-28T16:25:17.143Z,49.20
2019-04-28T16:27:45.560Z,49.60
2019-04-28T16:30:14.306Z,49.30
2019-04-28T16:32:45.723Z,49.20
2019-04-28T16:35:14.194Z,49.20
2019-04-28T16:37:42.749Z,49.40
2019-04-28T16:40:11.236Z,49.00
2019-04-28T16:42:43.499Z,49.00
2019-04-28T16:45:18.636Z,49.30
2019-04-28T16:47:47.368Z,49.40
2019-04-28T16:50:16.469Z,49.10
2019-04-28T16:52:45.409Z,49.00
2019-04-28T16:55:15.539Z,48.70
2019-04-28T16:57:48.691Z,48.50
2019-04-28T17:00:21.439Z,48.40
2019-04-28T17:02:49.854Z,49.00
2019-04-28T17:05:18.346Z,48.10
2019-04-28T17:07:52.763Z,48.10
2019-04-28T17:10:17.019Z,48.00
2019-04-28T17:12:45.446Z,48.10
2019-04-28T17:15:13.953Z,48.20
2019-04-28T17:17:42.364Z,48.20
2019-04-28T17:20:11.326Z,48.20
2019-04-28T17:22:40.334Z,48.10
2019-04-28T17:25:09.487Z,48.10
2019-04-28T17:27:37.935Z,48.20
2019-04-28T17:30:08.041Z,48.40
2019-04-28T17:32:36.451Z,48.30
2019-04-28T17:35:05.734Z,48.30
2019-04-28T17:37:34.240Z,48.40
2019-04-28T17:40:02.721Z,48.40
2019-04-28T17:42:31.145Z,48.40
2019-04-28T17:44:59.582Z,48.60
2019-04-28T17:47:28.005Z,48.60
2019-04-28T17:49:56.456Z,48.80
2019-04-28T17:52:25.450Z,48.90
2019-04-28T17:54:53.878Z,49.20
2019-04-28T17:57:22.303Z,49.90
2019-04-28T17:59:52.377Z,49.40
2019-04-28T18:02:40.762Z,49.50
2019-04-28T18:05:26.120Z,49.60
2019-04-28T18:07:56.629Z,49.80
2019-04-28T18:10:25.964Z,49.90
2019-04-28T18:13:00.533Z,50.00
2019-04-28T18:15:32.298Z,50.00
2019-04-28T18:18:02.360Z,50.10
2019-04-28T18:20:30.807Z,50.10
2019-04-28T18:22:59.234Z,50.10
2019-04-28T18:25:27.777Z,50.30
2019-04-28T18:27:56.223Z,51.00
2019-04-28T18:30:26.308Z,50.40
2019-04-28T18:32:56.368Z,50.40
2019-04-28T18:35:29.133Z,50.40
2019-04-28T18:38:14.397Z,50.50
2019-04-28T18:40:46.882Z,50.60
2019-04-28T18:43:23.034Z,50.60
2019-04-28T18:45:51.450Z,50.70
2019-04-28T18:48:20.240Z,50.70
2019-04-28T18:50:48.814Z,50.80
2019-04-28T18:53:17.232Z,50.90
2019-04-28T18:55:45.674Z,50.90
2019-04-28T18:58:14.127Z,51.10
2019-04-28T19:00:44.192Z,51.40
2019-04-28T19:03:12.618Z,51.00
2019-04-28T19:05:42.673Z,52.40
2019-04-28T19:08:30.735Z,51.90
2019-04-28T19:11:06.693Z,52.10
2019-04-28T19:13:36.738Z,52.30
2019-04-28T19:16:09.754Z,52.50
2019-04-28T19:18:39.836Z,52.60
2019-04-28T19:21:08.319Z,52.50
2019-04-28T19:23:36.750Z,52.80
2019-04-28T19:26:05.919Z,53.50
2019-04-28T19:28:34.345Z,53.10
2019-04-28T19:31:02.994Z,53.20
2019-04-28T19:33:31.426Z,53.30
2019-04-28T19:35:59.846Z,53.30
2019-04-28T19:38:31.215Z,53.40
2019-04-28T19:40:59.686Z,53.40
2019-04-28T19:43:28.177Z,53.60
2019-04-28T19:45:58.269Z,53.60
2019-04-28T19:48:26.719Z,53.80
2019-04-28T19:50:55.208Z,53.70
2019-04-28T19:53:23.662Z,53.90
2019-04-28T19:55:53.731Z,53.70
2019-04-28T19:58:29.911Z,53.80
2019-04-28T20:01:06.132Z,53.70
2019-04-28T20:03:34.612Z,53.60
2019-04-28T20:06:03.098Z,53.80
2019-04-28T20:08:31.555Z,54.10
2019-04-28T20:10:59.989Z,54.20
2019-04-28T20:13:31.326Z,54.00
2019-04-28T20:15:58.614Z,54.10
2019-04-28T20:18:29.493Z,54.10
2019-04-28T20:20:57.294Z,53.90
2019-04-28T20:23:25.724Z,53.60
2019-04-28T20:25:54.139Z,53.70
2019-04-28T20:28:22.876Z,53.60
2019-04-28T20:30:51.327Z,53.70
2019-04-28T20:33:19.754Z,53.80
2019-04-28T20:35:49.819Z,53.60
2019-04-28T20:38:22.335Z,53.60
2019-04-28T20:41:00.911Z,53.40
2019-04-28T20:43:30.154Z,53.50
2019-04-28T20:45:58.575Z,53.30
2019-04-28T20:48:27.070Z,53.30
2019-04-28T20:50:55.494Z,53.40
2019-04-28T20:53:23.914Z,53.40
2019-04-28T20:55:52.388Z,53.50
2019-04-28T20:58:20.902Z,53.90
2019-04-28T21:00:49.337Z,53.80
2019-04-28T21:03:17.747Z,54.10
2019-04-28T21:05:46.200Z,54.10
2019-04-28T21:08:14.619Z,54.00
2019-04-28T21:10:43.058Z,54.00
2019-04-28T21:13:11.518Z,54.20
2019-04-28T21:15:40.143Z,54.20
2019-04-28T21:18:08.574Z,54.40
2019-04-28T21:20:37.016Z,54.60
2019-04-28T21:23:05.511Z,54.50
2019-04-28T21:25:33.991Z,54.40
2019-04-28T21:28:02.447Z,54.50
2019-04-28T21:30:30.890Z,54.60
2019-04-28T21:32:59.361Z,54.90
2019-04-28T21:35:27.940Z,55.30
2019-04-28T21:37:56.428Z,55.20
2019-04-28T21:40:25.516Z,55.40
2019-04-28T21:43:07.626Z,55.70
2019-04-28T21:45:56.008Z,56.00
2019-04-28T21:48:32.065Z,56.00
2019-04-28T21:51:03.445Z,55.90
2019-04-28T21:53:31.864Z,55.90
2019-04-28T21:56:00.401Z,55.90
2019-04-28T21:58:33.422Z,56.00
2019-04-28T22:00:59.827Z,56.90
2019-04-28T22:03:28.280Z,57.20
2019-04-28T22:05:56.683Z,57.00
2019-04-28T22:08:25.106Z,57.40
2019-04-28T22:10:53.633Z,57.50
2019-04-28T22:13:22.066Z,58.00
2019-04-28T22:15:50.534Z,57.30
2019-04-28T22:18:19.006Z,57.30
2019-04-28T22:20:47.496Z,57.30
2019-04-28T22:23:18.966Z,57.50
2019-04-28T22:25:47.706Z,57.60
2019-04-28T22:28:16.128Z,57.50
2019-04-28T22:30:44.722Z,57.20
2019-04-28T22:33:13.716Z,57.10
2019-04-28T22:35:42.330Z,57.30
2019-04-28T22:38:10.756Z,57.20
2019-04-28T22:40:39.250Z,57.60
2019-04-28T22:43:07.669Z,57.50
2019-04-28T22:45:36.157Z,57.40
2019-04-28T22:48:05.958Z,57.40
2019-04-28T22:50:39.989Z,57.60
2019-04-28T22:53:08.483Z,57.70
2019-04-28T22:55:41.826Z,57.80
2019-04-28T22:58:17.875Z,57.80
2019-04-28T23:00:48.091Z,57.60
2019-04-28T23:03:33.423Z,57.40
2019-04-28T23:06:01.833Z,57.30
2019-04-28T23:08:30.395Z,57.10
2019-04-28T23:10:58.984Z,57.20
2019-04-28T23:13:27.419Z,57.30
2019-04-28T23:15:55.905Z,57.50
2019-04-28T23:18:26.032Z,57.70
2019-04-28T23:20:56.095Z,57.70
2019-04-28T23:23:24.526Z,58.00
2019-04-28T23:25:52.946Z,57.90
2019-04-28T23:28:21.369Z,57.60
2019-04-28T23:30:49.789Z,57.70
2019-04-28T23:33:18.627Z,57.80
2019-04-28T23:35:47.050Z,57.90
2019-04-28T23:38:15.471Z,57.90
2019-04-28T23:40:45.909Z,57.90
2019-04-28T23:43:21.688Z,57.70
2019-04-28T23:45:50.111Z,57.80
2019-04-28T23:48:21.215Z,58.10
2019-04-28T23:50:54.011Z,58.00
2019-04-28T23:53:40.299Z,58.20
2019-04-28T23:56:08.798Z,58.20
2019-04-28T23:58:37.502Z,58.10
